createdAt,value
2023-09-06T00:01:29.043Z,70.25
2023-09-06T00:03:57.828Z,70.54
2023-09-06T00:06:25.820Z,70.63
2023-09-06T00:08:53.616Z,70.93
2023-09-06T00:11:21.602Z,70.80
2023-09-06T00:13:50.901Z,70.76
2023-09-06T00:16:18.830Z,71.01
2023-09-06T00:18:46.816Z,71.26
2023-09-06T00:21:14.692Z,71.21
2023-09-06T00:23:42.492Z,71.24
2023-09-06T00:26:10.363Z,70.84
2023-09-06T00:28:38.160Z,71.51
2023-09-06T00:31:09.730Z,71.22
2023-09-06T00:33:37.711Z,71.63
2023-09-06T00:36:06.632Z,71.56
2023-09-06T00:38:34.543Z,71.64
2023-09-06T00:41:02.644Z,71.72
2023-09-06T00:43:30.984Z,72.22
2023-09-06T00:46:00.401Z,71.92
2023-09-06T00:48:30.909Z,72.11
2023-09-06T00:51:02.283Z,71.86
2023-09-06T00:53:30.145Z,71.45
2023-09-06T00:56:00.405Z,71.62
2023-09-06T00:58:29.422Z,71.93
2023-09-06T01:00:58.679Z,71.85
2023-09-06T01:03:29.291Z,71.74
2023-09-06T01:06:05.400Z,71.76
2023-09-06T01:08:37.875Z,71.98
2023-09-06T01:11:19.933Z,71.61
2023-09-06T01:13:52.116Z,72.09
2023-09-06T01:16:25.964Z,72.02
2023-09-06T01:18:53.890Z,71.95
2023-09-06T01:21:27.003Z,71.46
2023-09-06T01:23:56.850Z,71.31
2023-09-06T01:26:25.096Z,71.52
2023-09-06T01:28:53.019Z,71.61
2023-09-06T01:31:21.028Z,71.95
2023-09-06T01:33:49.008Z,71.63
2023-09-06T01:36:17.027Z,71.35
2023-09-06T01:38:44.758Z,72.01
2023-09-06T01:41:14.125Z,71.35
2023-09-06T01:43:42.019Z,71.31
2023-09-06T01:46:10.090Z,71.36
2023-09-06T01:48:40.690Z,71.77
2023-09-06T01:51:10.406Z,72.01
2023-09-06T01:53:38.140Z,72.20
2023-09-06T01:56:08.645Z,72.33
2023-09-06T01:58:38.505Z,72.03
2023-09-06T02:01:06.784Z,72.55
2023-09-06T02:03:35.588Z,72.57
2023-09-06T02:06:04.392Z,72.70
2023-09-06T02:08:33.377Z,72.20
2023-09-06T02:11:01.333Z,72.19
2023-09-06T02:13:29.286Z,72.39
2023-09-06T02:15:58.748Z,72.35
2023-09-06T02:18:28.346Z,72.66
2023-09-06T02:20:57.392Z,72.38
2023-09-06T02:23:25.349Z,72.68
2023-09-06T02:25:53.191Z,72.89
2023-09-06T02:28:21.056Z,72.99
2023-09-06T02:30:48.983Z,72.55
2023-09-06T02:33:18.248Z,72.95
2023-09-06T02:35:46.519Z,72.47
2023-09-06T02:38:15.544Z,73.08
2023-09-06T02:40:43.528Z,73.15
2023-09-06T02:43:14.946Z,73.04
2023-09-06T02:45:51.147Z,72.94
2023-09-06T02:48:22.997Z,72.78
2023-09-06T02:50:52.989Z,72.71
2023-09-06T02:53:22.369Z,72.65
2023-09-06T02:55:53.148Z,72.73
2023-09-06T02:58:24.816Z,72.49
2023-09-06T03:00:57.025Z,72.37
2023-09-06T03:03:29.079Z,72.19
2023-09-06T03:05:58.785Z,72.57
2023-09-06T03:08:29.208Z,72.25
2023-09-06T03:10:57.862Z,72.61
2023-09-06T03:13:25.664Z,72.53
2023-09-06T03:15:53.509Z,72.68
2023-09-06T03:18:21.482Z,72.26
2023-09-06T03:20:50.872Z,72.61
2023-09-06T03:23:22.564Z,72.81
2023-09-06T03:25:53.063Z,72.96
2023-09-06T03:28:21.086Z,72.98
2023-09-06T03:30:49.317Z,72.91
2023-09-06T03:33:17.242Z,72.65
2023-09-06T03:35:47.003Z,72.62
2023-09-06T03:38:20.356Z,72.88
2023-09-06T03:40:50.568Z,73.43
2023-09-06T03:43:21.035Z,73.75
2023-09-06T03:45:52.578Z,73.53
2023-09-06T03:48:23.699Z,74.06
2023-09-06T03:50:53.510Z,74.09
2023-09-06T03:53:23.093Z,73.96
2023-09-06T03:55:51.331Z,74.01
2023-09-06T03:58:19.457Z,74.27
2023-09-06T04:00:48.903Z,73.98
2023-09-06T04:03:20.393Z,74.32
2023-09-06T04:05:52.254Z,73.89
2023-09-06T04:08:20.439Z,74.27
2023-09-06T04:10:50.782Z,74.27
2023-09-06T04:13:20.593Z,73.13
2023-09-06T04:15:48.722Z,73.38
2023-09-06T04:18:20.260Z,73.20
2023-09-06T04:20:50.316Z,73.58
2023-09-06T04:23:21.205Z,73.62
2023-09-06T04:25:50.585Z,73.52
2023-09-06T04:28:21.802Z,74.21
2023-09-06T04:30:49.698Z,74.38
2023-09-06T04:33:18.582Z,73.89
2023-09-06T04:35:47.776Z,73.75
2023-09-06T04:38:17.304Z,73.84
2023-09-06T04:40:45.899Z,74.03
2023-09-06T04:43:16.981Z,74.24
2023-09-06T04:45:45.118Z,74.19
2023-09-06T04:48:24.659Z,74.09
2023-09-06T04:50:52.906Z,74.35
2023-09-06T04:53:20.847Z,74.96
2023-09-06T04:55:51.799Z,74.88
2023-09-06T04:58:24.329Z,74.37
2023-09-06T05:00:52.649Z,74.24
2023-09-06T05:03:20.872Z,74.50
2023-09-06T05:05:49.573Z,74.08
2023-09-06T05:08:21.365Z,73.91
2023-09-06T05:10:52.294Z,74.00
2023-09-06T05:13:21.785Z,73.61
2023-09-06T05:15:49.607Z,73.79
2023-09-06T05:18:20.829Z,74.18
2023-09-06T05:20:48.713Z,74.11
2023-09-06T05:23:16.951Z,74.03
2023-09-06T05:25:45.562Z,74.35
2023-09-06T05:28:16.386Z,73.87
2023-09-06T05:30:46.811Z,73.94
2023-09-06T05:33:16.241Z,73.74
2023-09-06T05:35:44.678Z,74.50
2023-09-06T05:38:12.658Z,74.60
2023-09-06T05:40:43.153Z,74.58
2023-09-06T05:43:10.961Z,75.17
2023-09-06T05:45:38.828Z,74.92
2023-09-06T05:48:11.753Z,74.75
2023-09-06T05:50:40.349Z,74.83
2023-09-06T05:53:08.322Z,75.19
2023-09-06T05:55:36.129Z,75.49
2023-09-06T05:58:03.944Z,75.67
2023-09-06T06:00:33.072Z,76.07
2023-09-06T06:03:03.281Z,75.73
2023-09-06T06:05:33.772Z,76.17
2023-09-06T06:08:01.635Z,75.84
2023-09-06T06:10:35.636Z,76.12
2023-09-06T06:13:04.957Z,76.00
2023-09-06T06:15:33.407Z,76.24
2023-09-06T06:18:01.327Z,76.16
2023-09-06T06:20:38.580Z,76.40
2023-09-06T06:23:13.015Z,75.97
2023-09-06T06:25:40.875Z,76.55
2023-09-06T06:28:09.286Z,76.17
2023-09-06T06:30:37.327Z,76.13
2023-09-06T06:33:08.167Z,75.69
2023-09-06T06:35:36.612Z,75.50
2023-09-06T06:38:04.496Z,75.75
2023-09-06T06:40:37.320Z,75.42
2023-09-06T06:43:05.545Z,74.72
2023-09-06T06:45:33.377Z,74.23
2023-09-06T06:48:01.186Z,73.96
2023-09-06T06:50:29.456Z,73.84
2023-09-06T06:52:57.318Z,73.48
2023-09-06T06:55:25.106Z,74.02
2023-09-06T06:57:54.388Z,73.63
2023-09-06T07:00:22.939Z,73.12
2023-09-06T07:02:50.742Z,72.97
2023-09-06T07:05:18.788Z,73.03
2023-09-06T07:07:46.699Z,72.84
2023-09-06T07:10:16.219Z,72.62
2023-09-06T07:12:44.214Z,72.60
2023-09-06T07:17:42.608Z,72.29
2023-09-06T07:20:13.129Z,72.99
2023-09-06T07:22:40.926Z,72.13
2023-09-06T07:25:09.500Z,72.19
2023-09-06T07:27:37.267Z,71.17
2023-09-06T07:30:05.835Z,71.12
2023-09-06T07:32:33.668Z,71.14
2023-09-06T07:35:03.023Z,72.05
2023-09-06T07:37:30.876Z,72.50
2023-09-06T07:40:00.797Z,70.89
2023-09-06T07:42:28.673Z,72.14
2023-09-06T07:44:57.548Z,71.42
2023-09-06T07:47:25.444Z,70.63
2023-09-06T07:49:53.419Z,69.80
2023-09-06T07:52:22.689Z,69.10
2023-09-06T07:54:50.481Z,69.43
2023-09-06T07:57:18.312Z,69.63
2023-09-06T07:59:46.023Z,69.05
2023-09-06T08:02:13.889Z,68.58
2023-09-06T08:04:41.748Z,68.85
2023-09-06T08:07:10.370Z,67.34
2023-09-06T08:09:39.861Z,66.89
2023-09-06T08:12:08.102Z,67.09
2023-09-06T08:14:35.984Z,65.04
2023-09-06T08:17:04.096Z,65.45
2023-09-06T08:19:31.976Z,65.47
2023-09-06T08:21:59.885Z,64.31
2023-09-06T08:24:27.737Z,63.17
2023-09-06T08:26:56.946Z,63.60
2023-09-06T08:29:24.855Z,64.73
2023-09-06T08:31:52.861Z,63.25
2023-09-06T08:34:20.783Z,62.68
2023-09-06T08:36:48.548Z,62.62
2023-09-06T08:39:16.289Z,60.88
2023-09-06T08:41:45.487Z,61.47
2023-09-06T08:44:16.400Z,61.08
2023-09-06T08:46:45.080Z,60.35
2023-09-06T08:49:14.352Z,59.65
2023-09-06T08:51:43.543Z,60.33
2023-09-06T08:54:13.764Z,61.03
2023-09-06T08:56:41.748Z,60.07
2023-09-06T08:59:10.246Z,61.49
2023-09-06T09:01:40.077Z,59.18
2023-09-06T09:04:08.305Z,58.02
2023-09-06T09:06:36.423Z,57.49
2023-09-06T09:09:16.245Z,58.83
2023-09-06T09:11:46.012Z,58.52
2023-09-06T09:14:21.231Z,57.60
2023-09-06T09:16:56.723Z,56.83
2023-09-06T09:19:25.143Z,57.40
2023-09-06T09:21:53.447Z,57.67
2023-09-06T09:24:28.973Z,56.00
2023-09-06T09:26:57.891Z,56.93
2023-09-06T09:29:25.808Z,55.73
2023-09-06T09:31:55.077Z,57.48
2023-09-06T09:34:22.794Z,57.39
2023-09-06T09:36:52.110Z,55.85
2023-09-06T09:39:20.389Z,54.24
2023-09-06T09:41:58.956Z,55.15
2023-09-06T09:44:27.826Z,53.79
2023-09-06T09:46:58.681Z,54.15
2023-09-06T09:49:27.972Z,54.21
2023-09-06T09:51:55.764Z,54.76
2023-09-06T09:54:25.809Z,55.60
2023-09-06T09:57:03.848Z,56.90
2023-09-06T09:59:32.692Z,57.31
2023-09-06T10:02:02.173Z,54.74
2023-09-06T10:04:30.609Z,53.99
2023-09-06T10:06:58.989Z,53.51
2023-09-06T10:09:27.404Z,52.32
2023-09-06T10:11:55.465Z,52.67
2023-09-06T10:14:26.564Z,52.29
2023-09-06T10:16:54.592Z,52.07
2023-09-06T10:19:23.865Z,53.70
2023-09-06T10:21:51.770Z,54.41
2023-09-06T10:24:20.455Z,53.15
2023-09-06T10:26:49.202Z,52.77
2023-09-06T10:29:20.804Z,50.59
2023-09-06T10:31:49.692Z,51.17
2023-09-06T10:34:17.874Z,49.67
2023-09-06T10:36:56.212Z,48.21
2023-09-06T10:39:26.364Z,47.26
2023-09-06T10:42:19.403Z,47.52
2023-09-06T10:45:09.532Z,48.15
2023-09-06T10:47:38.180Z,48.94
2023-09-06T10:50:10.246Z,50.78
2023-09-06T10:52:43.906Z,48.77
2023-09-06T10:55:21.949Z,49.07
2023-09-06T10:57:56.696Z,49.30
2023-09-06T11:00:28.999Z,48.15
2023-09-06T11:03:22.968Z,48.02
2023-09-06T11:05:55.592Z,46.77
2023-09-06T11:08:27.744Z,46.51
2023-09-06T11:11:01.691Z,45.56
2023-09-06T11:13:33.464Z,45.11
2023-09-06T11:16:02.464Z,45.01
2023-09-06T11:18:32.249Z,45.99
2023-09-06T11:21:01.436Z,45.13
2023-09-06T11:23:31.204Z,44.66
2023-09-06T11:26:01.972Z,45.28
2023-09-06T11:28:34.512Z,46.06
2023-09-06T11:31:06.181Z,44.84
2023-09-06T11:33:34.472Z,43.94
2023-09-06T11:36:05.074Z,44.83
2023-09-06T11:38:36.506Z,46.46
2023-09-06T11:41:08.351Z,43.02
2023-09-06T11:43:40.678Z,44.75
2023-09-06T11:46:10.114Z,41.80
2023-09-06T11:48:39.961Z,43.44
2023-09-06T11:51:11.367Z,44.39
2023-09-06T11:53:46.930Z,43.50
2023-09-06T11:56:21.009Z,42.32
2023-09-06T11:58:50.999Z,41.59
2023-09-06T12:01:22.504Z,42.88
2023-09-06T12:03:52.235Z,42.53
2023-09-06T12:06:20.240Z,42.18
2023-09-06T12:08:49.585Z,40.77
2023-09-06T12:11:23.072Z,40.36
2023-09-06T12:13:51.014Z,41.50
2023-09-06T12:16:18.912Z,40.41
2023-09-06T12:18:47.303Z,40.70
2023-09-06T12:21:16.619Z,40.08
2023-09-06T12:23:44.575Z,40.05
2023-09-06T12:26:16.444Z,39.98
2023-09-06T12:28:44.238Z,40.06
2023-09-06T12:31:17.557Z,40.50
2023-09-06T12:33:48.459Z,40.46
2023-09-06T12:36:18.175Z,38.73
2023-09-06T12:38:47.234Z,38.66
2023-09-06T12:41:16.790Z,39.42
2023-09-06T12:43:44.635Z,39.60
2023-09-06T12:46:13.946Z,38.29
2023-09-06T12:48:44.160Z,38.19
2023-09-06T12:51:12.774Z,38.54
2023-09-06T12:53:40.778Z,38.08
2023-09-06T12:56:13.099Z,39.24
2023-09-06T12:58:43.460Z,37.37
2023-09-06T13:01:12.168Z,37.25
2023-09-06T13:03:43.077Z,37.10
2023-09-06T13:06:10.940Z,36.92
2023-09-06T13:08:38.779Z,38.52
2023-09-06T13:11:07.600Z,37.29
2023-09-06T13:13:35.863Z,37.85
2023-09-06T13:16:07.460Z,38.64
2023-09-06T13:18:35.686Z,37.75
2023-09-06T13:21:06.693Z,37.29
2023-09-06T13:23:35.060Z,37.63
2023-09-06T13:26:03.049Z,37.57
2023-09-06T13:28:30.948Z,38.61
2023-09-06T13:30:59.141Z,37.63
2023-09-06T13:33:29.791Z,37.65
2023-09-06T13:35:57.855Z,38.44
2023-09-06T13:38:25.582Z,37.42
2023-09-06T13:40:53.466Z,37.88
2023-09-06T13:43:21.236Z,37.43
2023-09-06T13:45:49.333Z,37.64
2023-09-06T13:48:17.368Z,37.58
2023-09-06T13:50:46.651Z,38.91
2023-09-06T13:53:14.456Z,38.33
2023-09-06T13:55:42.262Z,38.36
2023-09-06T13:58:11.716Z,38.32
2023-09-06T14:00:39.572Z,37.96
2023-09-06T14:03:07.827Z,37.36
2023-09-06T14:05:36.282Z,38.55
2023-09-06T14:08:05.926Z,38.39
2023-09-06T14:10:33.896Z,37.74
2023-09-06T14:13:02.655Z,37.35
2023-09-06T14:15:30.448Z,37.62
2023-09-06T14:17:59.190Z,37.80
2023-09-06T14:20:27.023Z,39.26
2023-09-06T14:22:54.885Z,37.66
2023-09-06T14:25:24.197Z,37.49
2023-09-06T14:27:51.974Z,36.42
2023-09-06T14:30:20.250Z,36.70
2023-09-06T14:32:48.254Z,36.67
2023-09-06T14:35:16.294Z,37.51
2023-09-06T14:37:44.092Z,37.77
2023-09-06T14:41:07.070Z,35.85
2023-09-06T14:43:34.818Z,36.80
2023-09-06T14:46:06.416Z,37.84
2023-09-06T14:48:35.325Z,37.54
2023-09-06T14:51:04.805Z,37.31
2023-09-06T14:53:34.193Z,36.79
2023-09-06T14:56:03.050Z,37.45
2023-09-06T14:58:32.513Z,36.28
2023-09-06T15:01:00.546Z,35.91
2023-09-06T15:03:28.512Z,35.64
2023-09-06T15:05:56.387Z,35.68
2023-09-06T15:08:24.086Z,35.58
2023-09-06T15:10:51.951Z,35.70
2023-09-06T15:13:19.663Z,35.71
2023-09-06T15:15:50.438Z,36.70
2023-09-06T15:18:18.457Z,35.84
2023-09-06T15:20:46.456Z,35.91
2023-09-06T15:23:15.234Z,35.78
2023-09-06T15:25:45.111Z,36.04
2023-09-06T15:28:13.310Z,35.55
2023-09-06T15:30:41.206Z,35.36
2023-09-06T15:33:11.511Z,36.22
2023-09-06T15:35:39.384Z,36.86
2023-09-06T15:38:09.029Z,36.63
2023-09-06T15:40:38.031Z,37.02
2023-09-06T15:43:06.271Z,37.01
2023-09-06T15:45:34.475Z,38.04
2023-09-06T15:48:02.388Z,37.57
2023-09-06T15:50:31.797Z,37.95
2023-09-06T15:52:59.782Z,37.89
2023-09-06T15:55:27.722Z,37.87
2023-09-06T15:57:56.493Z,37.87
2023-09-06T16:00:32.454Z,38.38
2023-09-06T16:03:01.313Z,37.17
2023-09-06T16:05:28.357Z,37.77
2023-09-06T16:07:57.773Z,38.43
2023-09-06T16:10:26.123Z,38.48
2023-09-06T16:12:54.152Z,38.21
2023-09-06T16:15:24.034Z,38.88
2023-09-06T16:17:52.234Z,38.36
2023-09-06T16:20:20.690Z,38.50
2023-09-06T16:22:48.536Z,38.51
2023-09-06T16:25:19.274Z,38.64
2023-09-06T16:27:47.108Z,39.13
2023-09-06T16:30:15.267Z,39.05
2023-09-06T16:32:43.608Z,38.48
2023-09-06T16:35:12.325Z,38.71
2023-09-06T16:37:40.801Z,39.17
2023-09-06T16:40:12.231Z,39.60
2023-09-06T16:42:42.078Z,39.98
2023-09-06T16:45:11.037Z,40.74
2023-09-06T16:47:38.858Z,41.44
2023-09-06T16:50:07.828Z,39.98
2023-09-06T16:52:37.296Z,39.98
2023-09-06T16:55:05.569Z,39.87
2023-09-06T16:57:33.388Z,40.41
2023-09-06T17:00:02.650Z,39.69
2023-09-06T17:02:30.483Z,40.17
2023-09-06T17:04:58.277Z,40.13
2023-09-06T17:07:26.201Z,39.62
2023-09-06T17:09:54.020Z,40.33
2023-09-06T17:12:22.188Z,40.11
2023-09-06T17:14:50.487Z,41.40
2023-09-06T17:17:20.635Z,41.27
2023-09-06T17:19:49.959Z,40.95
2023-09-06T17:22:17.856Z,42.15
2023-09-06T17:24:45.760Z,42.96
2023-09-06T17:27:13.666Z,43.51
2023-09-06T17:29:44.721Z,43.86
2023-09-06T17:32:14.056Z,44.66
2023-09-06T17:34:43.543Z,45.40
2023-09-06T17:37:12.242Z,45.88
2023-09-06T17:39:41.920Z,45.87
2023-09-06T17:42:09.666Z,45.92
2023-09-06T17:44:37.647Z,46.10
2023-09-06T17:47:08.096Z,46.42
2023-09-06T17:49:36.244Z,46.82
2023-09-06T17:52:06.929Z,46.87
2023-09-06T17:54:34.749Z,47.36
2023-09-06T17:57:05.433Z,47.34
2023-09-06T17:59:35.152Z,47.89
2023-09-06T18:02:05.778Z,47.83
2023-09-06T18:04:34.094Z,47.74
2023-09-06T18:07:02.180Z,48.24
2023-09-06T18:09:34.484Z,48.19
2023-09-06T18:12:02.822Z,48.54
2023-09-06T18:14:30.622Z,49.02
2023-09-06T18:16:59.684Z,49.55
2023-09-06T18:19:27.603Z,49.66
2023-09-06T18:21:58.006Z,49.91
2023-09-06T18:24:25.791Z,50.52
2023-09-06T18:29:30.939Z,51.45
2023-09-06T18:31:58.912Z,51.63
2023-09-06T18:34:26.765Z,52.47
2023-09-06T18:36:54.691Z,52.95
2023-09-06T18:39:23.827Z,53.21
2023-09-06T18:41:52.330Z,53.47
2023-09-06T18:44:21.487Z,53.81
2023-09-06T18:46:49.353Z,53.54
2023-09-06T18:49:18.086Z,53.91
2023-09-06T18:51:45.778Z,54.74
2023-09-06T18:54:13.656Z,54.35
2023-09-06T18:56:41.434Z,55.08
2023-09-06T18:59:10.111Z,55.16
2023-09-06T19:01:39.313Z,55.21
2023-09-06T19:04:07.445Z,55.35
2023-09-06T19:06:35.714Z,55.60
2023-09-06T19:09:09.398Z,55.92
2023-09-06T19:11:37.609Z,56.28
2023-09-06T19:14:05.880Z,55.87
2023-09-06T19:16:34.129Z,56.22
2023-09-06T19:19:03.345Z,56.23
2023-09-06T19:21:31.156Z,56.39
2023-09-06T19:23:58.941Z,56.52
2023-09-06T19:26:26.669Z,56.99
2023-09-06T19:28:54.411Z,57.34
2023-09-06T19:31:22.306Z,57.52
2023-09-06T19:33:50.198Z,57.52
2023-09-06T19:36:19.455Z,57.71
2023-09-06T19:38:47.301Z,57.57
2023-09-06T19:41:15.117Z,58.23
2023-09-06T19:43:42.826Z,58.42
2023-09-06T19:46:10.694Z,58.97
2023-09-06T19:48:50.593Z,58.95
2023-09-06T19:51:24.048Z,59.52
2023-09-06T19:53:51.866Z,59.32
2023-09-06T19:56:19.581Z,59.47
2023-09-06T19:58:48.550Z,59.73
2023-09-06T20:01:17.578Z,60.10
2023-09-06T20:03:47.229Z,60.10
2023-09-06T20:06:15.220Z,60.06
2023-09-06T20:08:44.943Z,59.87
2023-09-06T20:11:13.191Z,59.86
2023-09-06T20:13:41.039Z,60.25
2023-09-06T20:16:08.774Z,60.33
2023-09-06T20:18:36.621Z,60.39
2023-09-06T20:21:07.608Z,60.51
2023-09-06T20:23:38.688Z,60.49
2023-09-06T20:26:08.196Z,60.70
2023-09-06T20:28:37.141Z,61.01
2023-09-06T20:31:04.955Z,60.92
2023-09-06T20:33:32.756Z,61.03
2023-09-06T20:36:00.655Z,61.36
2023-09-06T20:38:28.769Z,61.29
2023-09-06T20:41:00.568Z,61.68
2023-09-06T20:43:30.337Z,61.68
2023-09-06T20:45:58.426Z,61.94
2023-09-06T20:48:27.205Z,62.17
2023-09-06T20:50:55.654Z,62.24
2023-09-06T20:53:24.030Z,62.71
2023-09-06T20:55:52.046Z,62.72
2023-09-06T20:58:20.739Z,63.00
2023-09-06T21:00:55.282Z,63.35
2023-09-06T21:03:25.532Z,63.47
2023-09-06T21:05:58.090Z,63.43
2023-09-06T21:08:26.169Z,63.77
2023-09-06T21:10:54.345Z,63.70
2023-09-06T21:13:22.294Z,63.74
2023-09-06T21:15:53.239Z,64.13
2023-09-06T21:18:21.252Z,64.37
2023-09-06T21:20:51.580Z,64.35
2023-09-06T21:23:19.479Z,64.45
2023-09-06T21:25:47.257Z,64.43
2023-09-06T21:30:15.512Z,64.57
2023-09-06T21:32:43.271Z,64.95
2023-09-06T21:35:11.126Z,64.96
2023-09-06T21:37:38.985Z,65.38
2023-09-06T21:40:08.843Z,65.21
2023-09-06T21:42:36.762Z,65.25
2023-09-06T21:45:05.413Z,65.33
2023-09-06T21:47:34.618Z,65.38
2023-09-06T21:50:03.869Z,65.54
2023-09-06T21:52:31.699Z,65.78
2023-09-06T21:54:59.603Z,65.92
2023-09-06T21:57:27.462Z,65.63
2023-09-06T21:59:55.253Z,65.73
2023-09-06T22:02:23.148Z,65.83
2023-09-06T22:04:52.500Z,65.82
2023-09-06T22:07:20.543Z,65.87
2023-09-06T22:09:48.392Z,66.08
2023-09-06T22:12:16.061Z,66.07
2023-09-06T22:14:43.887Z,65.85
2023-09-06T22:17:11.918Z,65.75
2023-09-06T22:19:39.726Z,65.79
2023-09-06T22:22:09.170Z,65.73
2023-09-06T22:24:36.980Z,66.25
2023-09-06T22:27:05.741Z,66.30
2023-09-06T22:29:33.563Z,66.57
2023-09-06T22:32:01.482Z,66.55
2023-09-06T22:34:35.593Z,66.93
2023-09-06T22:37:03.461Z,66.72
2023-09-06T22:39:33.597Z,66.93
2023-09-06T22:42:01.929Z,67.15
2023-09-06T22:44:29.747Z,66.97
2023-09-06T22:46:57.586Z,67.32
2023-09-06T22:49:25.572Z,67.59
2023-09-06T22:51:53.403Z,67.28
2023-09-06T22:54:21.612Z,67.31
2023-09-06T22:56:50.726Z,67.30
2023-09-06T22:59:18.732Z,67.45
2023-09-06T23:01:46.561Z,67.44
2023-09-06T23:04:14.534Z,67.75
2023-09-06T23:06:42.511Z,67.36
2023-09-06T23:09:12.461Z,67.59
2023-09-06T23:11:42.350Z,67.56
2023-09-06T23:14:16.523Z,67.59
2023-09-06T23:16:44.764Z,67.42
2023-09-06T23:19:14.417Z,67.44
2023-09-06T23:21:44.210Z,67.30
2023-09-06T23:24:13.928Z,67.41
2023-09-06T23:26:47.229Z,67.64
2023-09-06T23:29:17.628Z,67.60
2023-09-06T23:31:54.459Z,67.95
2023-09-06T23:34:25.628Z,68.04
2023-09-06T23:36:55.574Z,68.13
2023-09-06T23:39:23.841Z,68.19
2023-09-06T23:41:56.170Z,68.27
2023-09-06T23:44:25.975Z,67.90
2023-09-06T23:46:55.907Z,68.09
2023-09-06T23:49:23.975Z,68.08
2023-09-06T23:51:51.821Z,68.42
2023-09-06T23:54:24.803Z,67.80
2023-09-06T23:56:57.796Z,68.26
2023-09-06T23:59:26.999Z,67.96
